createdAt,value
2018-05-11T00:01:21.536Z,5.30
2018-05-11T00:05:24.178Z,6.30
2018-05-11T00:09:26.843Z,6.80
2018-05-11T00:13:29.451Z,7.00
2018-05-11T00:17:32.097Z,6.90
2018-05-11T00:21:35.523Z,7.17
2018-05-11T00:25:38.164Z,8.40
2018-05-11T00:29:40.848Z,8.13
2018-05-11T00:33:43.455Z,9.27
2018-05-11T00:37:46.136Z,10.07
2018-05-11T00:41:48.789Z,10.40
2018-05-11T00:45:51.453Z,11.17
2018-05-11T00:49:54.145Z,12.47
2018-05-11T00:53:56.756Z,12.27
2018-05-11T00:57:59.415Z,14.00
2018-05-11T01:02:02.069Z,13.40
2018-05-11T01:06:04.716Z,14.73
2018-05-11T01:10:07.373Z,14.03
2018-05-11T01:14:09.989Z,14.27
2018-05-11T01:18:12.636Z,16.37
2018-05-11T01:22:16.052Z,16.13
2018-05-11T01:26:18.736Z,14.43
2018-05-11T01:30:22.156Z,14.80
2018-05-11T01:34:24.763Z,15.60
2018-05-11T01:38:27.412Z,15.43
2018-05-11T01:42:30.838Z,14.70
2018-05-11T01:46:34.255Z,15.20
2018-05-11T01:50:36.912Z,15.27
2018-05-11T01:54:40.292Z,15.57
2018-05-11T01:58:43.006Z,14.63
2018-05-11T02:02:46.429Z,14.13
2018-05-11T02:06:49.859Z,14.20
2018-05-11T02:10:52.563Z,14.97
2018-05-11T02:14:55.171Z,15.50
2018-05-11T02:18:57.841Z,14.10
2018-05-11T02:23:00.537Z,14.73
2018-05-11T02:27:03.183Z,14.40
2018-05-11T02:31:06.599Z,14.90
2018-05-11T02:35:09.211Z,14.17
2018-05-11T02:39:11.864Z,15.43
2018-05-11T02:43:14.804Z,15.67
2018-05-11T02:47:17.459Z,15.83
2018-05-11T02:51:20.178Z,15.37
2018-05-11T02:55:22.784Z,15.93
2018-05-11T02:59:25.528Z,15.33
2018-05-11T03:03:28.180Z,15.83
2018-05-11T03:07:30.835Z,15.27
2018-05-11T03:11:33.444Z,15.80
2018-05-11T03:15:36.895Z,16.60
2018-05-11T03:19:39.577Z,17.03
2018-05-11T03:23:43.053Z,16.83
2018-05-11T03:27:45.699Z,17.17
2018-05-11T03:31:48.318Z,15.83
2018-05-11T03:35:51.774Z,16.93
2018-05-11T03:39:54.424Z,17.07
2018-05-11T03:43:57.074Z,17.00
2018-05-11T03:47:59.724Z,16.90
2018-05-11T03:52:03.095Z,17.80
2018-05-11T03:56:05.752Z,19.10
2018-05-11T04:00:08.404Z,19.43
2018-05-11T04:04:23.818Z,18.70
2018-05-11T04:08:38.504Z,19.37
2018-05-11T04:12:41.169Z,19.17
2018-05-11T04:16:43.820Z,18.27
2018-05-11T04:20:46.551Z,14.10
2018-05-11T04:24:49.984Z,13.97
2018-05-11T04:28:52.592Z,13.33
2018-05-11T04:32:55.244Z,12.03
2018-05-11T04:36:57.888Z,10.90
2018-05-11T04:41:00.544Z,11.27
2018-05-11T04:45:03.198Z,11.30
2018-05-11T04:49:05.814Z,10.80
2018-05-11T04:53:08.515Z,11.27
2018-05-11T04:57:11.208Z,11.90
2018-05-11T05:01:13.854Z,11.40
2018-05-11T05:05:16.511Z,11.03
2018-05-11T05:09:19.234Z,11.23
2018-05-11T05:13:21.883Z,11.07
2018-05-11T05:17:24.524Z,10.37
2018-05-11T05:21:27.172Z,10.87
2018-05-11T05:25:30.597Z,11.00
2018-05-11T05:29:33.972Z,11.10
2018-05-11T05:33:36.617Z,10.90
2018-05-11T05:37:39.268Z,10.83
2018-05-11T05:41:42.740Z,11.17
2018-05-11T05:45:45.450Z,11.60
2018-05-11T05:49:48.051Z,11.60
2018-05-11T05:53:51.473Z,11.53
2018-05-11T05:57:54.180Z,12.00
2018-05-11T06:01:56.876Z,10.97
2018-05-11T06:05:59.489Z,10.57
2018-05-11T06:10:02.156Z,10.47
2018-05-11T06:14:04.818Z,11.30
2018-05-11T06:18:07.473Z,11.10
2018-05-11T06:22:10.128Z,11.20
2018-05-11T06:26:12.728Z,10.70
2018-05-11T06:30:15.387Z,11.07
2018-05-11T06:34:18.036Z,10.70
2018-05-11T06:38:20.691Z,11.20
2018-05-11T06:42:23.319Z,12.00
2018-05-11T06:46:26.742Z,10.70
2018-05-11T06:50:29.447Z,11.43
2018-05-11T06:54:32.145Z,10.77
2018-05-11T06:58:34.792Z,11.40
2018-05-11T07:02:38.168Z,10.53
2018-05-11T07:06:40.819Z,10.03
2018-05-11T07:10:43.465Z,10.57
2018-05-11T07:14:46.115Z,10.23
2018-05-11T07:18:48.770Z,9.07
2018-05-11T07:22:51.389Z,9.47
2018-05-11T07:26:54.097Z,11.20
2018-05-11T07:30:56.743Z,9.30
2018-05-11T07:34:59.490Z,8.50
2018-05-11T07:39:02.129Z,7.63
2018-05-11T07:43:04.846Z,7.80
2018-05-11T07:47:08.200Z,8.50
2018-05-11T07:51:11.605Z,7.83
2018-05-11T07:55:15.023Z,7.37
2018-05-11T07:59:17.740Z,6.53
2018-05-11T08:03:20.346Z,8.70
2018-05-11T08:07:22.997Z,7.50
2018-05-11T08:11:25.644Z,6.40
2018-05-11T08:15:28.292Z,7.40
2018-05-11T08:19:30.895Z,6.63
2018-05-11T08:23:33.553Z,6.60
2018-05-11T08:27:36.199Z,6.67
2018-05-11T08:31:38.845Z,7.90
2018-05-11T08:35:41.551Z,6.50
2018-05-11T08:39:44.723Z,5.50
2018-05-11T08:43:47.526Z,5.63
2018-05-11T08:47:50.343Z,5.07
2018-05-11T08:51:53.216Z,4.20
2018-05-11T08:55:55.920Z,3.90
2018-05-11T08:59:58.512Z,4.93
2018-05-11T09:04:01.165Z,4.83
2018-05-11T09:08:03.816Z,6.37
2018-05-11T09:12:06.492Z,6.07
2018-05-11T09:16:09.139Z,6.03
2018-05-11T09:20:11.745Z,4.00
2018-05-11T09:24:15.198Z,4.07
2018-05-11T09:28:18.604Z,4.47
2018-05-11T09:32:22.016Z,4.73
2018-05-11T09:36:25.428Z,5.53
2018-05-11T09:40:28.037Z,4.67
2018-05-11T09:44:30.678Z,5.70
2018-05-11T09:48:33.321Z,6.33
2018-05-11T09:52:35.999Z,5.33
2018-05-11T09:56:38.641Z,5.43
2018-05-11T10:00:41.289Z,5.80
2018-05-11T10:04:43.970Z,6.80
2018-05-11T10:08:46.680Z,7.10
2018-05-11T10:12:49.380Z,5.27
2018-05-11T10:16:52.096Z,5.63
2018-05-11T10:20:55.486Z,6.57
2018-05-11T10:24:58.235Z,5.90
2018-05-11T10:29:00.896Z,5.07
2018-05-11T10:33:03.548Z,4.97
2018-05-11T10:37:06.193Z,4.87
2018-05-11T10:41:08.797Z,5.10
2018-05-11T10:45:11.508Z,4.27
2018-05-11T10:49:14.960Z,5.83
2018-05-11T10:53:17.608Z,6.33
2018-05-11T10:57:20.248Z,5.73
2018-05-11T11:01:22.913Z,6.20
2018-05-11T11:05:26.321Z,7.70
2018-05-11T11:09:29.728Z,7.93
2018-05-11T11:13:33.156Z,7.40
2018-05-11T11:17:35.833Z,7.70
2018-05-11T11:21:38.435Z,7.23
2018-05-11T11:25:41.176Z,7.83
2018-05-11T11:29:43.813Z,6.40
2018-05-11T11:33:46.470Z,6.10
2018-05-11T11:37:49.152Z,8.30
2018-05-11T11:41:51.776Z,9.23
2018-05-11T11:45:54.435Z,8.77
2018-05-11T11:49:57.847Z,7.53
2018-05-11T11:54:01.323Z,7.00
2018-05-11T11:58:03.960Z,8.03
2018-05-11T12:02:06.564Z,8.70
2018-05-11T12:06:09.216Z,8.10
2018-05-11T12:10:12.691Z,8.47
2018-05-11T12:14:15.388Z,8.50
2018-05-11T12:18:18.031Z,8.80
2018-05-11T12:22:20.631Z,9.47
2018-05-11T12:26:23.287Z,9.13
2018-05-11T12:30:25.939Z,8.03
2018-05-11T12:34:28.666Z,9.00
2018-05-11T12:38:31.336Z,8.23
2018-05-11T12:42:34.734Z,8.97
2018-05-11T12:46:37.478Z,8.33
2018-05-11T12:50:40.136Z,8.03
2018-05-11T12:54:43.552Z,8.07
2018-05-11T12:58:46.213Z,7.50
2018-05-11T13:02:48.877Z,8.50
2018-05-11T13:06:51.528Z,8.80
2018-05-11T13:10:54.184Z,8.80
2018-05-11T13:14:57.600Z,8.77
2018-05-11T13:19:01.025Z,9.17
2018-05-11T13:23:03.636Z,8.53
2018-05-11T13:27:06.297Z,8.37
2018-05-11T13:31:08.944Z,8.43
2018-05-11T13:35:11.588Z,8.00
2018-05-11T13:39:14.227Z,8.83
2018-05-11T13:43:16.823Z,8.13
2018-05-11T13:47:20.240Z,7.10
2018-05-11T13:51:23.664Z,7.63
2018-05-11T13:55:26.458Z,7.63
2018-05-11T13:59:29.102Z,8.07
2018-05-11T14:03:31.751Z,8.53
2018-05-11T14:07:34.395Z,9.00
2018-05-11T14:11:37.799Z,8.10
2018-05-11T14:15:40.447Z,7.10
2018-05-11T14:19:43.162Z,8.10
2018-05-11T14:23:45.775Z,9.13
2018-05-11T14:27:49.188Z,8.90
2018-05-11T14:31:52.699Z,7.87
2018-05-11T14:35:56.096Z,7.80
2018-05-11T14:39:59.495Z,6.90
2018-05-11T14:44:02.861Z,6.67
2018-05-11T14:48:05.618Z,6.37
2018-05-11T14:52:08.260Z,6.90
2018-05-11T14:56:10.904Z,6.03
2018-05-11T15:00:13.540Z,5.47
2018-05-11T15:04:16.788Z,5.70
2018-05-11T15:08:19.426Z,6.10
2018-05-11T15:12:22.876Z,6.30
2018-05-11T15:16:25.520Z,6.53
2018-05-11T15:20:28.171Z,5.30
2018-05-11T15:24:30.782Z,5.00
2018-05-11T15:28:33.433Z,4.93
2018-05-11T15:32:36.079Z,5.23
2018-05-11T15:36:38.722Z,4.83
2018-05-11T15:40:41.365Z,5.83
2018-05-11T15:44:43.968Z,7.20
2018-05-11T15:48:47.380Z,5.70
2018-05-11T15:52:50.027Z,5.10
2018-05-11T15:56:52.671Z,5.17
2018-05-11T16:00:55.368Z,5.77
2018-05-11T16:04:57.976Z,4.90
2018-05-11T16:09:00.621Z,5.20
2018-05-11T16:13:04.039Z,5.47
2018-05-11T16:17:06.692Z,5.13
2018-05-11T16:21:09.336Z,4.97
2018-05-11T16:25:11.943Z,5.27
2018-05-11T16:29:14.595Z,5.27
2018-05-11T16:33:17.236Z,5.30
2018-05-11T16:37:19.878Z,3.87
2018-05-11T16:41:22.523Z,5.37
2018-05-11T16:45:25.123Z,5.00
2018-05-11T16:49:28.596Z,5.03
2018-05-11T16:53:31.241Z,4.40
2018-05-11T16:57:33.876Z,4.50
2018-05-11T17:01:37.329Z,4.20
2018-05-11T17:05:39.948Z,4.40
2018-05-11T17:09:42.595Z,4.30
2018-05-11T17:13:46.010Z,4.67
2018-05-11T17:17:48.715Z,4.83
2018-05-11T17:21:51.413Z,4.27
2018-05-11T17:25:54.019Z,4.30
2018-05-11T17:29:56.709Z,4.10
2018-05-11T17:33:59.394Z,4.30
2018-05-11T17:38:02.039Z,4.40
2018-05-11T17:42:05.456Z,4.53
2018-05-11T17:46:08.059Z,5.07
2018-05-11T17:50:10.702Z,4.43
2018-05-11T17:54:13.351Z,4.20
2018-05-11T17:58:16.003Z,5.03
2018-05-11T18:02:18.688Z,4.10
2018-05-11T18:06:22.117Z,4.13
2018-05-11T18:10:24.767Z,4.27
2018-05-11T18:14:28.180Z,3.80
2018-05-11T18:18:31.652Z,4.30
2018-05-11T18:22:34.303Z,4.17
2018-05-11T18:26:36.947Z,3.77
2018-05-11T18:30:39.578Z,4.00
2018-05-11T18:34:42.225Z,4.30
2018-05-11T18:38:44.860Z,3.77
2018-05-11T18:42:47.568Z,3.47
2018-05-11T18:46:50.164Z,4.47
2018-05-11T18:50:52.820Z,3.60
2018-05-11T18:54:55.466Z,4.93
2018-05-11T18:58:58.116Z,4.17
2018-05-11T19:03:01.525Z,4.50
2018-05-11T19:07:04.125Z,4.17
2018-05-11T19:11:07.644Z,4.33
2018-05-11T19:15:10.287Z,4.93
2018-05-11T19:19:12.935Z,4.97
2018-05-11T19:23:15.589Z,5.03
2018-05-11T19:27:18.206Z,4.60
2018-05-11T19:31:21.627Z,5.00
2018-05-11T19:35:25.032Z,4.30
2018-05-11T19:39:28.443Z,5.63
2018-05-11T19:43:31.856Z,5.20
2018-05-11T19:47:35.244Z,4.93
2018-05-11T19:51:37.890Z,5.50
2018-05-11T19:55:40.537Z,5.00
2018-05-11T19:59:43.993Z,5.83
2018-05-11T20:03:46.649Z,5.63
2018-05-11T20:07:49.255Z,5.60
2018-05-11T20:11:51.898Z,5.87
2018-05-11T20:15:55.307Z,5.27
2018-05-11T20:19:58.729Z,5.87
2018-05-11T20:24:01.442Z,5.20
2018-05-11T20:28:04.048Z,5.40
2018-05-11T20:32:06.696Z,5.70
2018-05-11T20:36:09.369Z,6.20
2018-05-11T20:40:14.616Z,6.67
2018-05-11T20:44:18.029Z,6.90
2018-05-11T20:48:21.399Z,7.20
2018-05-11T20:52:24.057Z,6.17
2018-05-11T20:56:27.476Z,7.50
2018-05-11T21:00:30.175Z,7.10
2018-05-11T21:04:32.828Z,8.73
2018-05-11T21:08:35.436Z,9.17
2018-05-11T21:12:38.081Z,8.77
2018-05-11T21:16:41.494Z,9.53
2018-05-11T21:20:44.900Z,9.53
2018-05-11T21:24:48.306Z,9.90
2018-05-11T21:28:51.682Z,10.23
2018-05-11T21:32:54.383Z,9.47
2018-05-11T21:36:57.808Z,11.00
2018-05-11T21:41:01.336Z,10.97
2018-05-11T21:45:03.996Z,11.60
2018-05-11T21:49:07.367Z,11.00
2018-05-11T21:53:10.086Z,10.83
2018-05-11T21:57:12.784Z,11.30
2018-05-11T22:01:16.207Z,11.87
2018-05-11T22:05:18.863Z,12.03
2018-05-11T22:09:21.478Z,12.03
2018-05-11T22:13:24.197Z,11.27
2018-05-11T22:17:27.574Z,11.17
2018-05-11T22:21:30.276Z,11.17
2018-05-11T22:25:32.928Z,11.47
2018-05-11T22:29:35.592Z,10.40
2018-05-11T22:33:38.247Z,11.23
2018-05-11T22:37:40.895Z,11.47
2018-05-11T22:45:44.624Z,13.30
2018-05-11T22:49:47.241Z,12.67
2018-05-11T22:53:50.712Z,11.00
2018-05-11T22:57:53.371Z,11.90
2018-05-11T23:01:56.025Z,12.77
2018-05-11T23:05:59.498Z,10.90
2018-05-11T23:10:02.205Z,10.90
2018-05-11T23:14:04.788Z,13.07
2018-05-11T23:18:07.440Z,11.83
2018-05-11T23:22:10.097Z,12.73
2018-05-11T23:26:12.756Z,13.43
2018-05-11T23:30:16.149Z,13.70
2018-05-11T23:34:18.856Z,13.50
2018-05-11T23:38:22.281Z,13.57
2018-05-11T23:42:24.964Z,13.07
2018-05-11T23:46:28.372Z,12.97
2018-05-11T23:50:31.750Z,14.20
2018-05-11T23:54:34.459Z,13.20
2018-05-11T23:58:37.875Z,12.90
